sensor_id;sensor_type;location;lat;lon;timestamp;P1;durP1;ratioP1;P2;durP2;ratioP2
72771;SDS011;60894;42.544;1.516;2024-01-16T00:00:43;5.30;;;1.80;;
72771;SDS011;60894;42.544;1.516;2024-01-16T00:03:10;6.90;;;2.00;;
72771;SDS011;60894;42.544;1.516;2024-01-16T00:05:39;4.47;;;1.42;;
72771;SDS011;60894;42.544;1.516;2024-01-16T00:08:06;4.15;;;1.23;;
72771;SDS011;60894;42.544;1.516;2024-01-16T00:10:33;6.95;;;2.28;;
72771;SDS011;60894;42.544;1.516;2024-01-16T00:13:00;6.33;;;2.40;;
72771;SDS011;60894;42.544;1.516;2024-01-16T00:15:27;6.60;;;2.10;;
72771;SDS011;60894;42.544;1.516;2024-01-16T00:17:54;7.63;;;1.70;;
72771;SDS011;60894;42.544;1.516;2024-01-16T00:20:21;4.35;;;1.50;;
72771;SDS011;60894;42.544;1.516;2024-01-16T00:22:50;5.45;;;1.80;;
72771;SDS011;60894;42.544;1.516;2024-01-16T00:25:17;5.63;;;1.77;;
72771;SDS011;60894;42.544;1.516;2024-01-16T00:27:45;4.40;;;1.50;;
72771;SDS011;60894;42.544;1.516;2024-01-16T00:30:12;3.30;;;1.02;;
72771;SDS011;60894;42.544;1.516;2024-01-16T00:32:40;2.80;;;0.90;;
72771;SDS011;60894;42.544;1.516;2024-01-16T00:35:07;3.15;;;0.82;;
72771;SDS011;60894;42.544;1.516;2024-01-16T00:37:35;3.60;;;1.20;;
72771;SDS011;60894;42.544;1.516;2024-01-16T00:40:05;2.97;;;1.08;;
72771;SDS011;60894;42.544;1.516;2024-01-16T00:42:34;3.97;;;1.13;;
72771;SDS011;60894;42.544;1.516;2024-01-16T00:45:01;25.33;;;11.23;;
72771;SDS011;60894;42.544;1.516;2024-01-16T00:47:28;19.27;;;7.82;;
72771;SDS011;60894;42.544;1.516;2024-01-16T00:49:55;3.17;;;1.20;;
72771;SDS011;60894;42.544;1.516;2024-01-16T00:52:22;4.13;;;1.55;;
72771;SDS011;60894;42.544;1.516;2024-01-16T00:54:49;4.85;;;1.42;;
72771;SDS011;60894;42.544;1.516;2024-01-16T00:57:18;3.08;;;1.42;;
72771;SDS011;60894;42.544;1.516;2024-01-16T00:59:45;2.40;;;0.85;;
72771;SDS011;60894;42.544;1.516;2024-01-16T01:02:12;4.20;;;1.10;;
72771;SDS011;60894;42.544;1.516;2024-01-16T01:04:39;2.55;;;0.80;;
72771;SDS011;60894;42.544;1.516;2024-01-16T01:07:08;6.22;;;1.90;;
72771;SDS011;60894;42.544;1.516;2024-01-16T01:09:35;3.75;;;1.33;;
72771;SDS011;60894;42.544;1.516;2024-01-16T01:12:02;4.68;;;1.40;;
72771;SDS011;60894;42.544;1.516;2024-01-16T01:14:31;4.17;;;1.10;;
72771;SDS011;60894;42.544;1.516;2024-01-16T01:16:58;3.10;;;1.20;;
72771;SDS011;60894;42.544;1.516;2024-01-16T01:19:26;2.78;;;0.80;;
72771;SDS011;60894;42.544;1.516;2024-01-16T01:21:53;1.98;;;0.80;;
72771;SDS011;60894;42.544;1.516;2024-01-16T01:24:20;5.20;;;1.23;;
72771;SDS011;60894;42.544;1.516;2024-01-16T01:26:47;4.57;;;1.33;;
72771;SDS011;60894;42.544;1.516;2024-01-16T01:29:14;3.42;;;1.23;;
72771;SDS011;60894;42.544;1.516;2024-01-16T01:31:46;3.22;;;1.23;;
72771;SDS011;60894;42.544;1.516;2024-01-16T01:34:14;2.50;;;0.90;;
72771;SDS011;60894;42.544;1.516;2024-01-16T01:36:41;2.45;;;0.85;;
72771;SDS011;60894;42.544;1.516;2024-01-16T01:39:08;2.60;;;0.90;;
72771;SDS011;60894;42.544;1.516;2024-01-16T01:41:37;1.08;;;0.60;;
72771;SDS011;60894;42.544;1.516;2024-01-16T01:44:05;2.65;;;0.90;;
72771;SDS011;60894;42.544;1.516;2024-01-16T01:46:33;2.88;;;1.40;;
72771;SDS011;60894;42.544;1.516;2024-01-16T01:49:03;1.65;;;0.90;;
72771;SDS011;60894;42.544;1.516;2024-01-16T01:51:30;2.40;;;0.90;;
72771;SDS011;60894;42.544;1.516;2024-01-16T01:53:58;4.13;;;1.10;;
72771;SDS011;60894;42.544;1.516;2024-01-16T01:56:26;2.13;;;0.98;;
72771;SDS011;60894;42.544;1.516;2024-01-16T01:58:55;2.83;;;1.00;;
72771;SDS011;60894;42.544;1.516;2024-01-16T02:01:24;1.52;;;0.70;;
72771;SDS011;60894;42.544;1.516;2024-01-16T02:03:54;2.00;;;0.77;;
72771;SDS011;60894;42.544;1.516;2024-01-16T02:06:24;2.75;;;0.90;;
72771;SDS011;60894;42.544;1.516;2024-01-16T02:08:51;2.70;;;0.95;;
72771;SDS011;60894;42.544;1.516;2024-01-16T02:11:19;2.03;;;0.70;;
72771;SDS011;60894;42.544;1.516;2024-01-16T02:13:46;1.60;;;0.60;;
72771;SDS011;60894;42.544;1.516;2024-01-16T02:16:19;2.67;;;0.90;;
72771;SDS011;60894;42.544;1.516;2024-01-16T02:18:47;2.90;;;0.85;;
72771;SDS011;60894;42.544;1.516;2024-01-16T02:21:15;2.75;;;0.90;;
72771;SDS011;60894;42.544;1.516;2024-01-16T02:23:46;1.85;;;0.85;;
72771;SDS011;60894;42.544;1.516;2024-01-16T02:26:14;2.95;;;1.42;;
72771;SDS011;60894;42.544;1.516;2024-01-16T02:28:41;3.27;;;0.77;;
72771;SDS011;60894;42.544;1.516;2024-01-16T02:31:08;1.77;;;0.60;;
72771;SDS011;60894;42.544;1.516;2024-01-16T02:33:35;1.08;;;0.40;;
72771;SDS011;60894;42.544;1.516;2024-01-16T02:36:03;2.83;;;0.90;;
72771;SDS011;60894;42.544;1.516;2024-01-16T02:38:30;2.10;;;0.63;;
72771;SDS011;60894;42.544;1.516;2024-01-16T02:40:59;1.80;;;0.60;;
72771;SDS011;60894;42.544;1.516;2024-01-16T02:43:26;0.60;;;0.30;;
72771;SDS011;60894;42.544;1.516;2024-01-16T02:45:53;1.77;;;0.70;;
72771;SDS011;60894;42.544;1.516;2024-01-16T02:48:20;3.72;;;1.00;;
72771;SDS011;60894;42.544;1.516;2024-01-16T02:50:47;1.88;;;0.80;;
72771;SDS011;60894;42.544;1.516;2024-01-16T02:53:14;1.97;;;0.70;;
72771;SDS011;60894;42.544;1.516;2024-01-16T02:55:41;0.63;;;0.40;;
72771;SDS011;60894;42.544;1.516;2024-01-16T02:58:10;2.67;;;0.98;;
72771;SDS011;60894;42.544;1.516;2024-01-16T03:00:37;1.33;;;0.60;;
72771;SDS011;60894;42.544;1.516;2024-01-16T03:03:04;1.70;;;0.43;;
72771;SDS011;60894;42.544;1.516;2024-01-16T03:05:31;1.87;;;0.63;;
72771;SDS011;60894;42.544;1.516;2024-01-16T03:07:58;2.80;;;0.93;;
72771;SDS011;60894;42.544;1.516;2024-01-16T03:10:25;3.28;;;0.80;;
72771;SDS011;60894;42.544;1.516;2024-01-16T03:12:52;1.45;;;0.60;;
72771;SDS011;60894;42.544;1.516;2024-01-16T03:15:21;1.13;;;0.43;;
72771;SDS011;60894;42.544;1.516;2024-01-16T03:17:48;2.10;;;0.60;;
72771;SDS011;60894;42.544;1.516;2024-01-16T03:20:16;6.10;;;1.00;;
72771;SDS011;60894;42.544;1.516;2024-01-16T03:22:43;2.70;;;0.70;;
72771;SDS011;60894;42.544;1.516;2024-01-16T03:25:10;2.50;;;0.80;;
72771;SDS011;60894;42.544;1.516;2024-01-16T03:27:37;2.35;;;0.80;;
72771;SDS011;60894;42.544;1.516;2024-01-16T03:30:05;1.37;;;0.50;;
72771;SDS011;60894;42.544;1.516;2024-01-16T03:32:35;2.28;;;0.60;;
72771;SDS011;60894;42.544;1.516;2024-01-16T03:35:02;1.95;;;0.70;;
72771;SDS011;60894;42.544;1.516;2024-01-16T03:37:30;3.67;;;0.63;;
72771;SDS011;60894;42.544;1.516;2024-01-16T03:39:57;1.90;;;0.80;;
72771;SDS011;60894;42.544;1.516;2024-01-16T03:42:24;1.20;;;0.50;;
72771;SDS011;60894;42.544;1.516;2024-01-16T03:44:51;1.85;;;0.60;;
72771;SDS011;60894;42.544;1.516;2024-01-16T03:47:18;1.45;;;0.60;;
72771;SDS011;60894;42.544;1.516;2024-01-16T03:49:47;0.70;;;0.32;;
72771;SDS011;60894;42.544;1.516;2024-01-16T03:52:14;2.63;;;0.60;;
72771;SDS011;60894;42.544;1.516;2024-01-16T03:54:41;1.67;;;0.60;;
72771;SDS011;60894;42.544;1.516;2024-01-16T03:57:08;1.70;;;0.60;;
72771;SDS011;60894;42.544;1.516;2024-01-16T03:59:36;1.73;;;0.80;;
72771;SDS011;60894;42.544;1.516;2024-01-16T04:02:04;1.30;;;0.52;;
72771;SDS011;60894;42.544;1.516;2024-01-16T04:04:31;1.50;;;0.60;;
72771;SDS011;60894;42.544;1.516;2024-01-16T04:06:59;1.37;;;0.60;;
72771;SDS011;60894;42.544;1.516;2024-01-16T04:09:26;3.55;;;0.50;;
72771;SDS011;60894;42.544;1.516;2024-01-16T04:11:53;1.40;;;0.40;;
72771;SDS011;60894;42.544;1.516;2024-01-16T04:14:20;1.25;;;0.60;;
72771;SDS011;60894;42.544;1.516;2024-01-16T04:16:47;2.20;;;0.70;;
72771;SDS011;60894;42.544;1.516;2024-01-16T04:19:14;0.93;;;0.47;;
72771;SDS011;60894;42.544;1.516;2024-01-16T04:21:42;0.63;;;0.35;;
72771;SDS011;60894;42.544;1.516;2024-01-16T04:24:10;1.77;;;0.43;;
72771;SDS011;60894;42.544;1.516;2024-01-16T04:26:37;1.08;;;0.40;;
72771;SDS011;60894;42.544;1.516;2024-01-16T04:29:04;2.25;;;0.50;;
72771;SDS011;60894;42.544;1.516;2024-01-16T04:31:32;2.73;;;0.50;;
72771;SDS011;60894;42.544;1.516;2024-01-16T04:34:05;2.97;;;0.40;;
72771;SDS011;60894;42.544;1.516;2024-01-16T04:36:33;0.65;;;0.30;;
72771;SDS011;60894;42.544;1.516;2024-01-16T04:39:00;1.65;;;0.85;;
72771;SDS011;60894;42.544;1.516;2024-01-16T04:41:30;1.77;;;0.60;;
72771;SDS011;60894;42.544;1.516;2024-01-16T04:43:57;1.77;;;0.80;;
72771;SDS011;60894;42.544;1.516;2024-01-16T04:46:24;0.82;;;0.38;;
72771;SDS011;60894;42.544;1.516;2024-01-16T04:48:51;1.30;;;0.40;;
72771;SDS011;60894;42.544;1.516;2024-01-16T04:51:18;1.85;;;0.70;;
72771;SDS011;60894;42.544;1.516;2024-01-16T04:53:45;1.35;;;0.50;;
72771;SDS011;60894;42.544;1.516;2024-01-16T04:56:12;2.60;;;1.40;;
72771;SDS011;60894;42.544;1.516;2024-01-16T04:58:40;1.55;;;0.60;;
72771;SDS011;60894;42.544;1.516;2024-01-16T05:01:07;1.98;;;0.57;;
72771;SDS011;60894;42.544;1.516;2024-01-16T05:03:34;0.95;;;0.60;;
72771;SDS011;60894;42.544;1.516;2024-01-16T05:06:01;1.17;;;0.38;;
72771;SDS011;60894;42.544;1.516;2024-01-16T05:08:29;1.80;;;0.70;;
72771;SDS011;60894;42.544;1.516;2024-01-16T05:10:56;0.82;;;0.40;;
72771;SDS011;60894;42.544;1.516;2024-01-16T05:13:24;2.08;;;0.60;;
72771;SDS011;60894;42.544;1.516;2024-01-16T05:15:53;3.15;;;1.20;;
72771;SDS011;60894;42.544;1.516;2024-01-16T05:18:20;1.42;;;0.50;;
72771;SDS011;60894;42.544;1.516;2024-01-16T05:20:47;1.80;;;1.30;;
72771;SDS011;60894;42.544;1.516;2024-01-16T05:23:14;2.63;;;1.30;;
72771;SDS011;60894;42.544;1.516;2024-01-16T05:25:42;2.42;;;0.90;;
72771;SDS011;60894;42.544;1.516;2024-01-16T05:28:09;1.35;;;0.80;;
72771;SDS011;60894;42.544;1.516;2024-01-16T05:30:36;2.60;;;0.88;;
72771;SDS011;60894;42.544;1.516;2024-01-16T05:33:04;1.93;;;0.70;;
72771;SDS011;60894;42.544;1.516;2024-01-16T05:35:32;1.85;;;0.70;;
72771;SDS011;60894;42.544;1.516;2024-01-16T05:37:59;1.48;;;0.60;;
72771;SDS011;60894;42.544;1.516;2024-01-16T05:40:26;1.55;;;0.65;;
72771;SDS011;60894;42.544;1.516;2024-01-16T05:42:53;6.53;;;2.00;;
72771;SDS011;60894;42.544;1.516;2024-01-16T05:45:21;5.23;;;1.50;;
72771;SDS011;60894;42.544;1.516;2024-01-16T05:47:48;1.92;;;0.85;;
72771;SDS011;60894;42.544;1.516;2024-01-16T05:50:17;2.00;;;0.98;;
72771;SDS011;60894;42.544;1.516;2024-01-16T05:52:44;3.03;;;1.00;;
72771;SDS011;60894;42.544;1.516;2024-01-16T05:55:11;2.55;;;0.70;;
72771;SDS011;60894;42.544;1.516;2024-01-16T05:57:38;2.80;;;1.00;;
72771;SDS011;60894;42.544;1.516;2024-01-16T06:00:06;2.67;;;0.90;;
72771;SDS011;60894;42.544;1.516;2024-01-16T06:02:33;4.88;;;1.77;;
72771;SDS011;60894;42.544;1.516;2024-01-16T06:05:00;4.03;;;1.60;;
72771;SDS011;60894;42.544;1.516;2024-01-16T06:07:30;3.80;;;1.20;;
72771;SDS011;60894;42.544;1.516;2024-01-16T06:09:57;4.47;;;1.30;;
72771;SDS011;60894;42.544;1.516;2024-01-16T06:12:24;2.70;;;1.20;;
72771;SDS011;60894;42.544;1.516;2024-01-16T06:14:51;3.40;;;1.00;;
72771;SDS011;60894;42.544;1.516;2024-01-16T06:17:18;3.38;;;1.10;;
72771;SDS011;60894;42.544;1.516;2024-01-16T06:19:45;4.40;;;1.63;;
72771;SDS011;60894;42.544;1.516;2024-01-16T06:22:12;3.37;;;1.30;;
72771;SDS011;60894;42.544;1.516;2024-01-16T06:24:41;3.50;;;1.50;;
72771;SDS011;60894;42.544;1.516;2024-01-16T06:27:08;5.47;;;1.90;;
72771;SDS011;60894;42.544;1.516;2024-01-16T06:29:35;2.28;;;0.80;;
72771;SDS011;60894;42.544;1.516;2024-01-16T06:32:02;2.33;;;0.98;;
72771;SDS011;60894;42.544;1.516;2024-01-16T06:34:30;6.53;;;2.60;;
72771;SDS011;60894;42.544;1.516;2024-01-16T06:36:57;5.70;;;2.10;;
72771;SDS011;60894;42.544;1.516;2024-01-16T06:39:24;4.28;;;1.90;;
72771;SDS011;60894;42.544;1.516;2024-01-16T06:41:52;5.30;;;2.30;;
72771;SDS011;60894;42.544;1.516;2024-01-16T06:44:19;4.88;;;1.90;;
72771;SDS011;60894;42.544;1.516;2024-01-16T06:46:46;5.00;;;1.90;;
72771;SDS011;60894;42.544;1.516;2024-01-16T06:49:13;9.00;;;1.55;;
72771;SDS011;60894;42.544;1.516;2024-01-16T06:51:40;2.17;;;1.17;;
72771;SDS011;60894;42.544;1.516;2024-01-16T06:54:07;2.60;;;1.08;;
72771;SDS011;60894;42.544;1.516;2024-01-16T06:56:34;7.60;;;4.18;;
72771;SDS011;60894;42.544;1.516;2024-01-16T06:59:03;5.70;;;2.87;;
72771;SDS011;60894;42.544;1.516;2024-01-16T07:01:30;8.38;;;2.75;;
72771;SDS011;60894;42.544;1.516;2024-01-16T07:03:57;9.13;;;3.83;;
72771;SDS011;60894;42.544;1.516;2024-01-16T07:06:24;9.35;;;6.00;;
72771;SDS011;60894;42.544;1.516;2024-01-16T07:08:52;6.43;;;2.42;;
72771;SDS011;60894;42.544;1.516;2024-01-16T07:11:19;6.50;;;3.43;;
72771;SDS011;60894;42.544;1.516;2024-01-16T07:13:46;4.30;;;1.90;;
72771;SDS011;60894;42.544;1.516;2024-01-16T07:16:15;3.95;;;1.77;;
72771;SDS011;60894;42.544;1.516;2024-01-16T07:18:42;3.50;;;1.40;;
72771;SDS011;60894;42.544;1.516;2024-01-16T07:21:18;3.05;;;1.25;;
72771;SDS011;60894;42.544;1.516;2024-01-16T07:23:46;12.57;;;5.60;;
72771;SDS011;60894;42.544;1.516;2024-01-16T07:26:13;7.82;;;3.97;;
72771;SDS011;60894;42.544;1.516;2024-01-16T07:28:41;8.55;;;4.00;;
72771;SDS011;60894;42.544;1.516;2024-01-16T07:31:09;6.93;;;2.80;;
72771;SDS011;60894;42.544;1.516;2024-01-16T07:33:38;10.88;;;6.00;;
72771;SDS011;60894;42.544;1.516;2024-01-16T07:36:06;6.80;;;2.10;;
72771;SDS011;60894;42.544;1.516;2024-01-16T07:38:34;5.25;;;1.98;;
72771;SDS011;60894;42.544;1.516;2024-01-16T07:41:02;3.60;;;1.88;;
72771;SDS011;60894;42.544;1.516;2024-01-16T07:43:30;5.18;;;1.90;;
72771;SDS011;60894;42.544;1.516;2024-01-16T07:45:58;4.05;;;1.50;;
72771;SDS011;60894;42.544;1.516;2024-01-16T07:48:25;5.23;;;1.93;;
72771;SDS011;60894;42.544;1.516;2024-01-16T07:50:53;5.45;;;2.13;;
72771;SDS011;60894;42.544;1.516;2024-01-16T07:53:20;6.57;;;2.33;;
72771;SDS011;60894;42.544;1.516;2024-01-16T07:55:47;7.00;;;2.60;;
72771;SDS011;60894;42.544;1.516;2024-01-16T07:58:14;6.85;;;2.53;;
72771;SDS011;60894;42.544;1.516;2024-01-16T08:00:42;6.97;;;2.80;;
72771;SDS011;60894;42.544;1.516;2024-01-16T08:03:09;4.85;;;1.98;;
72771;SDS011;60894;42.544;1.516;2024-01-16T08:05:37;7.70;;;2.45;;
72771;SDS011;60894;42.544;1.516;2024-01-16T08:08:07;8.05;;;2.90;;
72771;SDS011;60894;42.544;1.516;2024-01-16T08:10:36;9.85;;;3.25;;
72771;SDS011;60894;42.544;1.516;2024-01-16T08:13:03;13.43;;;4.77;;
72771;SDS011;60894;42.544;1.516;2024-01-16T08:15:30;9.88;;;4.00;;
72771;SDS011;60894;42.544;1.516;2024-01-16T08:17:57;8.38;;;2.72;;
72771;SDS011;60894;42.544;1.516;2024-01-16T08:20:24;6.18;;;2.80;;
72771;SDS011;60894;42.544;1.516;2024-01-16T08:22:51;5.93;;;2.60;;
72771;SDS011;60894;42.544;1.516;2024-01-16T08:25:21;7.00;;;2.60;;
72771;SDS011;60894;42.544;1.516;2024-01-16T08:27:48;6.93;;;2.20;;
72771;SDS011;60894;42.544;1.516;2024-01-16T08:30:15;6.20;;;3.45;;
72771;SDS011;60894;42.544;1.516;2024-01-16T08:32:42;6.55;;;2.63;;
72771;SDS011;60894;42.544;1.516;2024-01-16T08:35:09;7.40;;;2.90;;
72771;SDS011;60894;42.544;1.516;2024-01-16T08:37:37;6.73;;;3.10;;
72771;SDS011;60894;42.544;1.516;2024-01-16T08:40:04;5.03;;;2.10;;
72771;SDS011;60894;42.544;1.516;2024-01-16T08:42:34;5.80;;;2.50;;
72771;SDS011;60894;42.544;1.516;2024-01-16T08:45:01;6.15;;;1.92;;
72771;SDS011;60894;42.544;1.516;2024-01-16T08:47:30;8.70;;;2.17;;
72771;SDS011;60894;42.544;1.516;2024-01-16T08:49:57;7.00;;;2.20;;
72771;SDS011;60894;42.544;1.516;2024-01-16T08:52:24;9.13;;;3.63;;
72771;SDS011;60894;42.544;1.516;2024-01-16T08:54:52;6.60;;;2.58;;
72771;SDS011;60894;42.544;1.516;2024-01-16T08:57:19;5.85;;;2.42;;
72771;SDS011;60894;42.544;1.516;2024-01-16T08:59:47;5.20;;;2.58;;
72771;SDS011;60894;42.544;1.516;2024-01-16T09:02:15;10.27;;;3.17;;
72771;SDS011;60894;42.544;1.516;2024-01-16T09:04:42;9.20;;;3.13;;
72771;SDS011;60894;42.544;1.516;2024-01-16T09:07:09;21.38;;;6.38;;
72771;SDS011;60894;42.544;1.516;2024-01-16T09:09:36;77.43;;;17.77;;
72771;SDS011;60894;42.544;1.516;2024-01-16T09:12:04;44.03;;;12.23;;
72771;SDS011;60894;42.544;1.516;2024-01-16T09:14:31;26.03;;;10.20;;
72771;SDS011;60894;42.544;1.516;2024-01-16T09:17:00;17.50;;;6.05;;
72771;SDS011;60894;42.544;1.516;2024-01-16T09:19:28;14.02;;;4.75;;
72771;SDS011;60894;42.544;1.516;2024-01-16T09:21:55;11.30;;;3.67;;
72771;SDS011;60894;42.544;1.516;2024-01-16T09:24:23;13.38;;;4.07;;
72771;SDS011;60894;42.544;1.516;2024-01-16T09:26:50;8.23;;;2.50;;
72771;SDS011;60894;42.544;1.516;2024-01-16T09:29:17;10.63;;;5.72;;
72771;SDS011;60894;42.544;1.516;2024-01-16T09:31:44;10.75;;;5.78;;
72771;SDS011;60894;42.544;1.516;2024-01-16T09:34:13;6.70;;;2.90;;
72771;SDS011;60894;42.544;1.516;2024-01-16T09:36:40;9.05;;;4.00;;
72771;SDS011;60894;42.544;1.516;2024-01-16T09:39:07;5.50;;;2.70;;
72771;SDS011;60894;42.544;1.516;2024-01-16T09:41:34;5.75;;;2.53;;
72771;SDS011;60894;42.544;1.516;2024-01-16T09:44:01;8.82;;;2.60;;
72771;SDS011;60894;42.544;1.516;2024-01-16T09:46:28;8.90;;;3.08;;
72771;SDS011;60894;42.544;1.516;2024-01-16T09:48:58;7.35;;;2.90;;
72771;SDS011;60894;42.544;1.516;2024-01-16T09:51:28;7.23;;;3.40;;
72771;SDS011;60894;42.544;1.516;2024-01-16T09:53:55;6.90;;;3.40;;
72771;SDS011;60894;42.544;1.516;2024-01-16T09:56:24;9.30;;;5.50;;
72771;SDS011;60894;42.544;1.516;2024-01-16T09:58:53;9.55;;;4.40;;
72771;SDS011;60894;42.544;1.516;2024-01-16T10:01:23;8.90;;;4.50;;
72771;SDS011;60894;42.544;1.516;2024-01-16T10:03:53;7.97;;;3.83;;
72771;SDS011;60894;42.544;1.516;2024-01-16T10:06:20;7.93;;;3.72;;
72771;SDS011;60894;42.544;1.516;2024-01-16T10:08:51;7.88;;;3.40;;
72771;SDS011;60894;42.544;1.516;2024-01-16T10:11:18;8.02;;;3.63;;
72771;SDS011;60894;42.544;1.516;2024-01-16T10:13:45;6.38;;;2.80;;
72771;SDS011;60894;42.544;1.516;2024-01-16T10:16:12;7.90;;;3.50;;
72771;SDS011;60894;42.544;1.516;2024-01-16T10:18:39;6.38;;;3.17;;
72771;SDS011;60894;42.544;1.516;2024-01-16T10:21:09;7.57;;;2.92;;
72771;SDS011;60894;42.544;1.516;2024-01-16T10:23:47;8.88;;;4.03;;
72771;SDS011;60894;42.544;1.516;2024-01-16T10:26:16;9.18;;;3.90;;
72771;SDS011;60894;42.544;1.516;2024-01-16T10:28:44;10.47;;;3.80;;
72771;SDS011;60894;42.544;1.516;2024-01-16T10:31:12;8.77;;;4.72;;
72771;SDS011;60894;42.544;1.516;2024-01-16T10:33:40;9.35;;;4.90;;
72771;SDS011;60894;42.544;1.516;2024-01-16T10:36:08;11.73;;;4.07;;
72771;SDS011;60894;42.544;1.516;2024-01-16T10:38:37;11.27;;;3.60;;
72771;SDS011;60894;42.544;1.516;2024-01-16T10:41:05;10.73;;;4.13;;
72771;SDS011;60894;42.544;1.516;2024-01-16T10:43:34;15.95;;;4.55;;
72771;SDS011;60894;42.544;1.516;2024-01-16T10:46:08;8.52;;;3.40;;
72771;SDS011;60894;42.544;1.516;2024-01-16T10:48:37;12.32;;;3.45;;
72771;SDS011;60894;42.544;1.516;2024-01-16T10:51:05;7.82;;;3.25;;
72771;SDS011;60894;42.544;1.516;2024-01-16T10:53:34;11.20;;;3.83;;
72771;SDS011;60894;42.544;1.516;2024-01-16T10:56:01;13.05;;;4.07;;
72771;SDS011;60894;42.544;1.516;2024-01-16T10:58:32;8.90;;;4.00;;
72771;SDS011;60894;42.544;1.516;2024-01-16T11:01:02;6.53;;;3.17;;
72771;SDS011;60894;42.544;1.516;2024-01-16T11:03:34;15.98;;;5.88;;
72771;SDS011;60894;42.544;1.516;2024-01-16T11:06:05;8.97;;;3.67;;
72771;SDS011;60894;42.544;1.516;2024-01-16T11:08:35;7.25;;;3.00;;
72771;SDS011;60894;42.544;1.516;2024-01-16T11:11:03;8.63;;;4.03;;
72771;SDS011;60894;42.544;1.516;2024-01-16T11:13:31;9.05;;;3.13;;
72771;SDS011;60894;42.544;1.516;2024-01-16T11:16:00;7.50;;;2.67;;
72771;SDS011;60894;42.544;1.516;2024-01-16T11:18:30;13.13;;;5.20;;
72771;SDS011;60894;42.544;1.516;2024-01-16T11:20:58;12.85;;;3.28;;
72771;SDS011;60894;42.544;1.516;2024-01-16T11:23:27;12.20;;;3.00;;
72771;SDS011;60894;42.544;1.516;2024-01-16T11:25:54;10.95;;;3.20;;
72771;SDS011;60894;42.544;1.516;2024-01-16T11:28:27;4.93;;;2.28;;
72771;SDS011;60894;42.544;1.516;2024-01-16T11:30:56;5.47;;;2.43;;
72771;SDS011;60894;42.544;1.516;2024-01-16T11:33:43;5.53;;;1.95;;
72771;SDS011;60894;42.544;1.516;2024-01-16T11:39:09;6.45;;;2.00;;
72771;SDS011;60894;42.544;1.516;2024-01-16T11:41:49;17.73;;;2.58;;
72771;SDS011;60894;42.544;1.516;2024-01-16T11:47:16;8.35;;;2.22;;
72771;SDS011;60894;42.544;1.516;2024-01-16T11:49:46;10.43;;;2.35;;
72771;SDS011;60894;42.544;1.516;2024-01-16T11:52:13;10.07;;;2.63;;
72771;SDS011;60894;42.544;1.516;2024-01-16T11:54:41;8.65;;;2.45;;
72771;SDS011;60894;42.544;1.516;2024-01-16T11:57:33;8.80;;;2.50;;
72771;SDS011;60894;42.544;1.516;2024-01-16T12:00:18;11.48;;;3.30;;
72771;SDS011;60894;42.544;1.516;2024-01-16T12:02:51;7.55;;;2.10;;
72771;SDS011;60894;42.544;1.516;2024-01-16T12:05:21;6.88;;;2.50;;
72771;SDS011;60894;42.544;1.516;2024-01-16T12:07:49;2.85;;;1.23;;
72771;SDS011;60894;42.544;1.516;2024-01-16T12:10:18;5.00;;;1.77;;
72771;SDS011;60894;42.544;1.516;2024-01-16T12:12:46;10.65;;;2.30;;
72771;SDS011;60894;42.544;1.516;2024-01-16T12:15:14;8.07;;;1.75;;
72771;SDS011;60894;42.544;1.516;2024-01-16T12:17:51;6.68;;;2.20;;
72771;SDS011;60894;42.544;1.516;2024-01-16T12:20:21;4.63;;;2.00;;
72771;SDS011;60894;42.544;1.516;2024-01-16T12:22:52;16.03;;;2.70;;
72771;SDS011;60894;42.544;1.516;2024-01-16T12:25:20;6.93;;;1.90;;
72771;SDS011;60894;42.544;1.516;2024-01-16T12:27:53;6.03;;;2.13;;
72771;SDS011;60894;42.544;1.516;2024-01-16T12:30:23;8.88;;;2.33;;
72771;SDS011;60894;42.544;1.516;2024-01-16T12:32:51;6.85;;;2.40;;
72771;SDS011;60894;42.544;1.516;2024-01-16T12:35:23;7.60;;;2.30;;
72771;SDS011;60894;42.544;1.516;2024-01-16T12:37:59;11.93;;;2.72;;
72771;SDS011;60894;42.544;1.516;2024-01-16T12:40:27;14.68;;;3.03;;
72771;SDS011;60894;42.544;1.516;2024-01-16T12:42:54;10.23;;;2.50;;
72771;SDS011;60894;42.544;1.516;2024-01-16T12:45:21;17.92;;;2.88;;
72771;SDS011;60894;42.544;1.516;2024-01-16T12:47:50;10.23;;;2.00;;
72771;SDS011;60894;42.544;1.516;2024-01-16T12:50:22;12.52;;;2.97;;
72771;SDS011;60894;42.544;1.516;2024-01-16T12:53:00;9.38;;;2.08;;
72771;SDS011;60894;42.544;1.516;2024-01-16T12:55:28;8.40;;;2.35;;
72771;SDS011;60894;42.544;1.516;2024-01-16T12:58:15;9.07;;;2.20;;
72771;SDS011;60894;42.544;1.516;2024-01-16T13:00:42;9.93;;;2.60;;
72771;SDS011;60894;42.544;1.516;2024-01-16T13:03:19;7.07;;;2.30;;
72771;SDS011;60894;42.544;1.516;2024-01-16T13:05:55;11.70;;;2.40;;
72771;SDS011;60894;42.544;1.516;2024-01-16T13:08:23;6.47;;;2.03;;
72771;SDS011;60894;42.544;1.516;2024-01-16T13:13:34;6.23;;;2.10;;
72771;SDS011;60894;42.544;1.516;2024-01-16T13:16:01;9.90;;;3.17;;
72771;SDS011;60894;42.544;1.516;2024-01-16T13:18:31;10.43;;;1.88;;
72771;SDS011;60894;42.544;1.516;2024-01-16T13:21:00;7.65;;;2.50;;
72771;SDS011;60894;42.544;1.516;2024-01-16T13:23:28;4.47;;;1.40;;
72771;SDS011;60894;42.544;1.516;2024-01-16T13:25:55;6.87;;;1.70;;
72771;SDS011;60894;42.544;1.516;2024-01-16T13:28:24;12.45;;;2.85;;
72771;SDS011;60894;42.544;1.516;2024-01-16T13:30:52;10.00;;;2.20;;
72771;SDS011;60894;42.544;1.516;2024-01-16T13:33:20;9.15;;;2.58;;
72771;SDS011;60894;42.544;1.516;2024-01-16T13:35:48;18.08;;;2.60;;
72771;SDS011;60894;42.544;1.516;2024-01-16T13:38:17;6.00;;;1.70;;
72771;SDS011;60894;42.544;1.516;2024-01-16T13:40:44;7.60;;;1.50;;
72771;SDS011;60894;42.544;1.516;2024-01-16T13:43:11;7.15;;;1.70;;
72771;SDS011;60894;42.544;1.516;2024-01-16T13:45:39;8.13;;;1.80;;
72771;SDS011;60894;42.544;1.516;2024-01-16T13:48:07;7.53;;;1.73;;
72771;SDS011;60894;42.544;1.516;2024-01-16T13:50:35;8.27;;;1.70;;
72771;SDS011;60894;42.544;1.516;2024-01-16T13:53:02;5.38;;;1.48;;
72771;SDS011;60894;42.544;1.516;2024-01-16T13:55:30;11.60;;;2.83;;
72771;SDS011;60894;42.544;1.516;2024-01-16T13:57:58;9.48;;;2.25;;
72771;SDS011;60894;42.544;1.516;2024-01-16T14:00:25;5.32;;;1.50;;
72771;SDS011;60894;42.544;1.516;2024-01-16T14:02:52;8.17;;;1.70;;
72771;SDS011;60894;42.544;1.516;2024-01-16T14:05:20;6.18;;;1.65;;
72771;SDS011;60894;42.544;1.516;2024-01-16T14:07:49;5.18;;;1.15;;
72771;SDS011;60894;42.544;1.516;2024-01-16T14:10:17;2.72;;;1.10;;
72771;SDS011;60894;42.544;1.516;2024-01-16T14:12:47;2.53;;;1.52;;
72771;SDS011;60894;42.544;1.516;2024-01-16T14:15:17;2.67;;;1.20;;
72771;SDS011;60894;42.544;1.516;2024-01-16T14:17:46;3.42;;;1.30;;
72771;SDS011;60894;42.544;1.516;2024-01-16T14:20:15;7.60;;;1.38;;
72771;SDS011;60894;42.544;1.516;2024-01-16T14:22:43;8.07;;;1.40;;
72771;SDS011;60894;42.544;1.516;2024-01-16T14:25:11;12.65;;;2.03;;
72771;SDS011;60894;42.544;1.516;2024-01-16T14:27:40;14.23;;;1.87;;
72771;SDS011;60894;42.544;1.516;2024-01-16T14:30:10;14.50;;;2.25;;
72771;SDS011;60894;42.544;1.516;2024-01-16T14:32:38;6.75;;;1.40;;
72771;SDS011;60894;42.544;1.516;2024-01-16T14:35:08;10.70;;;2.60;;
72771;SDS011;60894;42.544;1.516;2024-01-16T14:37:36;13.07;;;3.47;;
72771;SDS011;60894;42.544;1.516;2024-01-16T14:40:04;12.13;;;1.90;;
72771;SDS011;60894;42.544;1.516;2024-01-16T14:42:38;6.90;;;1.90;;
72771;SDS011;60894;42.544;1.516;2024-01-16T14:45:05;8.07;;;1.80;;
72771;SDS011;60894;42.544;1.516;2024-01-16T14:47:35;9.40;;;1.73;;
72771;SDS011;60894;42.544;1.516;2024-01-16T14:50:02;6.47;;;1.75;;
72771;SDS011;60894;42.544;1.516;2024-01-16T14:52:29;8.20;;;2.40;;
72771;SDS011;60894;42.544;1.516;2024-01-16T14:54:57;13.38;;;2.35;;
72771;SDS011;60894;42.544;1.516;2024-01-16T14:57:24;9.85;;;2.30;;
72771;SDS011;60894;42.544;1.516;2024-01-16T14:59:52;10.98;;;2.13;;